sensor_id;sensor_type;location;lat;lon;timestamp;pressure;altitude;pressure_sealevel;temperature;humidity
76352;BME280;65179;47.786;19.138;2023-11-21T00:01:15;99803.44;;;16.04;52.50
76352;BME280;65179;47.786;19.138;2023-11-21T00:03:40;99806.19;;;16.04;52.50
76352;BME280;65179;47.786;19.138;2023-11-21T00:06:06;99805.63;;;16.02;52.50
76352;BME280;65179;47.786;19.138;2023-11-21T00:08:34;99799.03;;;16.03;52.50
76352;BME280;65179;47.786;19.138;2023-11-21T00:11:00;99810.28;;;16.02;52.51
76352;BME280;65179;47.786;19.138;2023-11-21T00:13:26;99805.34;;;16.04;52.49
76352;BME280;65179;47.786;19.138;2023-11-21T00:15:52;99793.56;;;16.03;52.47
76352;BME280;65179;47.786;19.138;2023-11-21T00:18:17;99803.69;;;16.03;52.44
76352;BME280;65179;47.786;19.138;2023-11-21T00:20:43;99797.41;;;16.02;52.46
76352;BME280;65179;47.786;19.138;2023-11-21T00:23:08;99810.28;;;16.02;52.43
76352;BME280;65179;47.786;19.138;2023-11-21T00:25:35;99817.66;;;16.01;52.42
76352;BME280;65179;47.786;19.138;2023-11-21T00:28:00;99821.50;;;16.00;52.41
76352;BME280;65179;47.786;19.138;2023-11-21T00:30:27;99816.03;;;16.00;52.37
76352;BME280;65179;47.786;19.138;2023-11-21T00:32:54;99818.78;;;16.00;52.36
76352;BME280;65179;47.786;19.138;2023-11-21T00:35:19;99821.50;;;16.00;52.35
76352;BME280;65179;47.786;19.138;2023-11-21T00:37:45;99819.84;;;15.99;52.33
76352;BME280;65179;47.786;19.138;2023-11-21T00:40:11;99822.59;;;15.99;52.31
76352;BME280;65179;47.786;19.138;2023-11-21T00:42:36;99823.69;;;15.98;52.28
76352;BME280;65179;47.786;19.138;2023-11-21T00:45:02;99828.34;;;15.98;52.27
76352;BME280;65179;47.786;19.138;2023-11-21T00:47:28;99834.66;;;15.98;52.25
76352;BME280;65179;47.786;19.138;2023-11-21T00:49:54;99845.59;;;15.98;52.26
76352;BME280;65179;47.786;19.138;2023-11-21T00:52:19;99833.81;;;15.98;52.24
76352;BME280;65179;47.786;19.138;2023-11-21T00:54:44;99838.47;;;15.97;52.24
76352;BME280;65179;47.786;19.138;2023-11-21T00:57:10;99834.37;;;16.00;52.18
76352;BME280;65179;47.786;19.138;2023-11-21T00:59:37;99830.28;;;16.02;52.12
76352;BME280;65179;47.786;19.138;2023-11-21T01:02:02;99820.94;;;16.03;52.07
76352;BME280;65179;47.786;19.138;2023-11-21T01:04:30;99820.44;;;16.06;52.00
76352;BME280;65179;47.786;19.138;2023-11-21T01:06:56;99815.50;;;16.08;51.95
76352;BME280;65179;47.786;19.138;2023-11-21T01:09:22;99819.06;;;16.09;51.92
76352;BME280;65179;47.786;19.138;2023-11-21T01:11:48;99825.09;;;16.11;51.87
76352;BME280;65179;47.786;19.138;2023-11-21T01:14:14;99810.03;;;16.13;51.84
76352;BME280;65179;47.786;19.138;2023-11-21T01:16:39;99808.38;;;16.12;51.80
76352;BME280;65179;47.786;19.138;2023-11-21T01:19:05;99808.94;;;16.14;51.78
76352;BME280;65179;47.786;19.138;2023-11-21T01:21:31;99807.84;;;16.15;51.77
76352;BME280;65179;47.786;19.138;2023-11-21T01:23:56;99809.47;;;16.16;51.74
76352;BME280;65179;47.786;19.138;2023-11-21T01:26:22;99811.41;;;16.16;51.73
76352;BME280;65179;47.786;19.138;2023-11-21T01:28:47;99805.66;;;16.17;51.71
76352;BME280;65179;47.786;19.138;2023-11-21T01:31:15;99806.22;;;16.19;51.70
76352;BME280;65179;47.786;19.138;2023-11-21T01:33:41;99806.22;;;16.19;51.69
76352;BME280;65179;47.786;19.138;2023-11-21T01:36:07;99802.37;;;16.20;51.68
76352;BME280;65179;47.786;19.138;2023-11-21T01:38:32;99805.09;;;16.20;51.67
76352;BME280;65179;47.786;19.138;2023-11-21T01:40:58;99800.47;;;16.21;51.67
76352;BME280;65179;47.786;19.138;2023-11-21T01:43:26;99798.81;;;16.20;51.64
76352;BME280;65179;47.786;19.138;2023-11-21T01:45:54;99804.31;;;16.20;51.64
76352;BME280;65179;47.786;19.138;2023-11-21T01:48:22;99798.81;;;16.20;51.65
76352;BME280;65179;47.786;19.138;2023-11-21T01:50:48;99805.66;;;16.22;51.63
76352;BME280;65179;47.786;19.138;2023-11-21T01:53:14;99806.75;;;16.21;51.64
76352;BME280;65179;47.786;19.138;2023-11-21T01:55:41;99799.62;;;16.20;51.63
76352;BME280;65179;47.786;19.138;2023-11-21T01:58:07;99802.13;;;16.22;51.63
76352;BME280;65179;47.786;19.138;2023-11-21T02:00:33;99791.44;;;16.25;51.67
76352;BME280;65179;47.786;19.138;2023-11-21T02:02:59;99789.25;;;16.27;51.66
76352;BME280;65179;47.786;19.138;2023-11-21T02:05:24;99793.88;;;16.27;51.63
76352;BME280;65179;47.786;19.138;2023-11-21T02:07:51;99788.41;;;16.27;51.64
76352;BME280;65179;47.786;19.138;2023-11-21T02:10:18;99788.69;;;16.25;51.63
76352;BME280;65179;47.786;19.138;2023-11-21T02:12:51;99774.16;;;16.25;51.63
76352;BME280;65179;47.786;19.138;2023-11-21T02:15:17;99776.91;;;16.25;51.62
76352;BME280;65179;47.786;19.138;2023-11-21T02:17:46;99773.06;;;16.26;51.61
76352;BME280;65179;47.786;19.138;2023-11-21T02:20:13;99774.97;;;16.25;51.59
76352;BME280;65179;47.786;19.138;2023-11-21T02:22:43;99770.59;;;16.24;51.58
76352;BME280;65179;47.786;19.138;2023-11-21T02:25:10;99776.06;;;16.24;51.56
76352;BME280;65179;47.786;19.138;2023-11-21T02:27:36;99776.91;;;16.25;51.54
76352;BME280;65179;47.786;19.138;2023-11-21T02:30:03;99768.69;;;16.25;51.52
76352;BME280;65179;47.786;19.138;2023-11-21T02:32:30;99770.59;;;16.24;51.52
76352;BME280;65179;47.786;19.138;2023-11-21T02:34:56;99766.75;;;16.25;51.49
76352;BME280;65179;47.786;19.138;2023-11-21T02:37:26;99771.16;;;16.26;51.52
76352;BME280;65179;47.786;19.138;2023-11-21T02:39:51;99767.59;;;16.26;51.52
76352;BME280;65179;47.786;19.138;2023-11-21T02:42:18;99762.94;;;16.26;51.51
76352;BME280;65179;47.786;19.138;2023-11-21T02:44:43;99764.56;;;16.27;51.50
76352;BME280;65179;47.786;19.138;2023-11-21T02:47:09;99760.22;;;16.26;51.48
76352;BME280;65179;47.786;19.138;2023-11-21T02:49:35;99755.53;;;16.27;51.46
76352;BME280;65179;47.786;19.138;2023-11-21T02:52:01;99749.25;;;16.26;51.46
76352;BME280;65179;47.786;19.138;2023-11-21T02:54:26;99745.41;;;16.27;51.45
76352;BME280;65179;47.786;19.138;2023-11-21T02:56:52;99750.88;;;16.27;51.42
76352;BME280;65179;47.786;19.138;2023-11-21T02:59:18;99743.75;;;16.26;51.42
76352;BME280;65179;47.786;19.138;2023-11-21T03:01:45;99746.50;;;16.26;51.40
76352;BME280;65179;47.786;19.138;2023-11-21T03:04:10;99744.84;;;16.25;51.38
76352;BME280;65179;47.786;19.138;2023-11-21T03:06:36;99745.41;;;16.27;51.35
76352;BME280;65179;47.786;19.138;2023-11-21T03:09:01;99748.13;;;16.27;51.34
76352;BME280;65179;47.786;19.138;2023-11-21T03:11:27;99752.53;;;16.28;51.30
76352;BME280;65179;47.786;19.138;2023-11-21T03:13:52;99756.34;;;16.27;51.29
76352;BME280;65179;47.786;19.138;2023-11-21T03:16:18;99749.78;;;16.28;51.27
76352;BME280;65179;47.786;19.138;2023-11-21T03:18:44;99750.59;;;16.29;51.25
76352;BME280;65179;47.786;19.138;2023-11-21T03:21:10;99753.34;;;16.29;51.22
76352;BME280;65179;47.786;19.138;2023-11-21T03:23:35;99747.06;;;16.28;51.21
76352;BME280;65179;47.786;19.138;2023-11-21T03:26:02;99742.66;;;16.32;51.18
76352;BME280;65179;47.786;19.138;2023-11-21T03:28:27;99731.72;;;16.32;51.22
76352;BME280;65179;47.786;19.138;2023-11-21T03:30:53;99727.84;;;16.33;51.20
76352;BME280;65179;47.786;19.138;2023-11-21T03:33:19;99732.53;;;16.33;51.19
76352;BME280;65179;47.786;19.138;2023-11-21T03:35:44;99727.06;;;16.33;51.20
76352;BME280;65179;47.786;19.138;2023-11-21T03:38:10;99730.88;;;16.32;51.19
76352;BME280;65179;47.786;19.138;2023-11-21T03:40:35;99726.22;;;16.32;51.17
76352;BME280;65179;47.786;19.138;2023-11-21T03:43:00;99726.22;;;16.32;51.17
76352;BME280;65179;47.786;19.138;2023-11-21T03:45:26;99727.84;;;16.33;51.18
76352;BME280;65179;47.786;19.138;2023-11-21T03:47:51;99728.97;;;16.32;51.14
76352;BME280;65179;47.786;19.138;2023-11-21T03:50:17;99721.56;;;16.33;51.13
76352;BME280;65179;47.786;19.138;2023-11-21T03:52:42;99712.78;;;16.31;51.12
76352;BME280;65179;47.786;19.138;2023-11-21T03:55:08;99716.34;;;16.31;51.12
76352;BME280;65179;47.786;19.138;2023-11-21T03:57:33;99706.50;;;16.30;51.12
76352;BME280;65179;47.786;19.138;2023-11-21T03:59:59;99716.63;;;16.30;51.16
76352;BME280;65179;47.786;19.138;2023-11-21T04:02:24;99711.44;;;16.28;51.16
76352;BME280;65179;47.786;19.138;2023-11-21T04:04:53;99708.69;;;16.28;51.16
76352;BME280;65179;47.786;19.138;2023-11-21T04:07:18;99705.41;;;16.26;51.17
76352;BME280;65179;47.786;19.138;2023-11-21T04:09:44;99707.56;;;16.24;51.18
76352;BME280;65179;47.786;19.138;2023-11-21T04:12:09;99700.47;;;16.23;51.19
76352;BME280;65179;47.786;19.138;2023-11-21T04:14:35;99691.69;;;16.21;51.21
76352;BME280;65179;47.786;19.138;2023-11-21T04:17:00;99684.56;;;16.20;51.22
76352;BME280;65179;47.786;19.138;2023-11-21T04:19:26;99688.41;;;16.19;51.22
76352;BME280;65179;47.786;19.138;2023-11-21T04:21:51;99690.59;;;16.17;51.25
76352;BME280;65179;47.786;19.138;2023-11-21T04:24:16;99701.56;;;16.17;51.24
76352;BME280;65179;47.786;19.138;2023-11-21T04:26:43;99704.56;;;16.16;51.25
76352;BME280;65179;47.786;19.138;2023-11-21T04:29:09;99717.44;;;16.15;51.27
76352;BME280;65179;47.786;19.138;2023-11-21T04:31:34;99717.69;;;16.14;51.28
76352;BME280;65179;47.786;19.138;2023-11-21T04:34:00;99734.97;;;16.14;51.28
76352;BME280;65179;47.786;19.138;2023-11-21T04:36:25;99732.22;;;16.14;51.22
76352;BME280;65179;47.786;19.138;2023-11-21T04:38:50;99741.28;;;16.15;51.19
76352;BME280;65179;47.786;19.138;2023-11-21T04:41:16;99742.66;;;16.17;51.09
76352;BME280;65179;47.786;19.138;2023-11-21T04:43:41;99751.66;;;16.18;51.05
76352;BME280;65179;47.786;19.138;2023-11-21T04:46:07;99754.16;;;16.19;51.00
76352;BME280;65179;47.786;19.138;2023-11-21T04:48:32;99750.31;;;16.20;50.95
76352;BME280;65179;47.786;19.138;2023-11-21T04:50:58;99754.72;;;16.21;50.88
76352;BME280;65179;47.786;19.138;2023-11-21T04:53:24;99766.22;;;16.23;50.82
76352;BME280;65179;47.786;19.138;2023-11-21T04:55:49;99770.59;;;16.24;50.75
76352;BME280;65179;47.786;19.138;2023-11-21T04:58:14;99783.22;;;16.25;50.68
76352;BME280;65179;47.786;19.138;2023-11-21T05:00:40;99776.66;;;16.26;50.61
76352;BME280;65179;47.786;19.138;2023-11-21T05:03:06;99788.41;;;16.27;50.55
76352;BME280;65179;47.786;19.138;2023-11-21T05:05:32;99773.63;;;16.28;50.51
76352;BME280;65179;47.786;19.138;2023-11-21T05:07:59;99782.41;;;16.30;50.41
76352;BME280;65179;47.786;19.138;2023-11-21T05:10:25;99774.44;;;16.28;50.39
76352;BME280;65179;47.786;19.138;2023-11-21T05:12:50;99772.78;;;16.27;50.36
76352;BME280;65179;47.786;19.138;2023-11-21T05:15:16;99780.72;;;16.29;50.32
76352;BME280;65179;47.786;19.138;2023-11-21T05:17:45;99773.34;;;16.29;50.28
76352;BME280;65179;47.786;19.138;2023-11-21T05:20:14;99775.25;;;16.29;50.23
76352;BME280;65179;47.786;19.138;2023-11-21T05:22:43;99770.59;;;16.29;50.17
76352;BME280;65179;47.786;19.138;2023-11-21T05:25:08;99776.09;;;16.29;50.13
76352;BME280;65179;47.786;19.138;2023-11-21T05:27:35;99767.59;;;16.31;50.08
76352;BME280;65179;47.786;19.138;2023-11-21T05:30:04;99778.84;;;16.34;50.03
76352;BME280;65179;47.786;19.138;2023-11-21T05:32:31;99772.25;;;16.35;49.92
76352;BME280;65179;47.786;19.138;2023-11-21T05:34:57;99767.91;;;16.39;49.86
76352;BME280;65179;47.786;19.138;2023-11-21T05:37:22;99776.12;;;16.39;49.80
76352;BME280;65179;47.786;19.138;2023-11-21T05:39:49;99784.88;;;16.41;49.76
76352;BME280;65179;47.786;19.138;2023-11-21T05:42:14;99776.12;;;16.39;49.73
76352;BME280;65179;47.786;19.138;2023-11-21T05:44:43;99776.12;;;16.39;49.72
76352;BME280;65179;47.786;19.138;2023-11-21T05:47:09;99772.00;;;16.37;49.71
76352;BME280;65179;47.786;19.138;2023-11-21T05:49:34;99776.66;;;16.36;49.71
76352;BME280;65179;47.786;19.138;2023-11-21T05:52:00;99766.75;;;16.35;49.73
76352;BME280;65179;47.786;19.138;2023-11-21T05:54:26;99769.78;;;16.34;49.73
76352;BME280;65179;47.786;19.138;2023-11-21T05:56:51;99773.06;;;16.31;49.74
76352;BME280;65179;47.786;19.138;2023-11-21T05:59:17;99789.78;;;16.29;49.77
76352;BME280;65179;47.786;19.138;2023-11-21T06:01:42;99789.25;;;16.27;49.77
76352;BME280;65179;47.786;19.138;2023-11-21T06:04:08;99788.41;;;16.27;49.77
76352;BME280;65179;47.786;19.138;2023-11-21T06:06:35;99791.44;;;16.25;49.77
76352;BME280;65179;47.786;19.138;2023-11-21T06:09:00;99791.44;;;16.25;49.82
76352;BME280;65179;47.786;19.138;2023-11-21T06:11:26;99795.25;;;16.24;49.89
76352;BME280;65179;47.786;19.138;2023-11-21T06:13:51;99806.22;;;16.24;50.01
76352;BME280;65179;47.786;19.138;2023-11-21T06:16:18;99806.22;;;16.24;50.15
76352;BME280;65179;47.786;19.138;2023-11-21T06:18:47;99817.16;;;16.24;50.27
76352;BME280;65179;47.786;19.138;2023-11-21T06:21:12;99817.16;;;16.24;50.42
76352;BME280;65179;47.786;19.138;2023-11-21T06:23:38;99833.06;;;16.22;50.47
76352;BME280;65179;47.786;19.138;2023-11-21T06:26:04;99833.87;;;16.23;50.54
76352;BME280;65179;47.786;19.138;2023-11-21T06:28:31;99832.25;;;16.22;50.58
76352;BME280;65179;47.786;19.138;2023-11-21T06:30:56;99829.50;;;16.22;50.59
76352;BME280;65179;47.786;19.138;2023-11-21T06:33:23;99828.69;;;16.21;50.62
76352;BME280;65179;47.786;19.138;2023-11-21T06:35:48;99836.06;;;16.21;50.64
76352;BME280;65179;47.786;19.138;2023-11-21T06:38:15;99835.25;;;16.20;50.67
76352;BME280;65179;47.786;19.138;2023-11-21T06:40:40;99838.53;;;16.17;50.70
76352;BME280;65179;47.786;19.138;2023-11-21T06:43:06;99846.47;;;16.19;50.72
76352;BME280;65179;47.786;19.138;2023-11-21T06:45:33;99848.66;;;16.17;50.75
76352;BME280;65179;47.786;19.138;2023-11-21T06:47:59;99847.84;;;16.16;50.80
76352;BME280;65179;47.786;19.138;2023-11-21T06:50:25;99858.78;;;16.16;50.84
76352;BME280;65179;47.786;19.138;2023-11-21T06:52:50;99867.28;;;16.15;50.90
76352;BME280;65179;47.786;19.138;2023-11-21T06:55:16;99875.50;;;16.15;51.02
76352;BME280;65179;47.786;19.138;2023-11-21T06:57:41;99880.16;;;16.14;51.13
76352;BME280;65179;47.786;19.138;2023-11-21T07:00:07;99880.44;;;16.13;51.22
76352;BME280;65179;47.786;19.138;2023-11-21T07:02:36;99893.84;;;16.14;51.32
76352;BME280;65179;47.786;19.138;2023-11-21T07:05:02;99890.56;;;16.12;51.43
76352;BME280;65179;47.786;19.138;2023-11-21T07:07:28;99890.56;;;16.12;51.48
76352;BME280;65179;47.786;19.138;2023-11-21T07:09:53;99887.81;;;16.12;51.59
76352;BME280;65179;47.786;19.138;2023-11-21T07:12:19;99888.94;;;16.11;51.60
76352;BME280;65179;47.786;19.138;2023-11-21T07:14:44;99899.06;;;16.11;51.64
76352;BME280;65179;47.786;19.138;2023-11-21T07:17:11;99895.50;;;16.10;51.61
76352;BME280;65179;47.786;19.138;2023-11-21T07:19:37;99896.56;;;16.09;51.57
76352;BME280;65179;47.786;19.138;2023-11-21T07:22:03;99897.69;;;16.08;51.56
76352;BME280;65179;47.786;19.138;2023-11-21T07:24:29;99894.94;;;16.08;51.50
76352;BME280;65179;47.786;19.138;2023-11-21T07:26:57;99900.69;;;16.07;51.48
76352;BME280;65179;47.786;19.138;2023-11-21T07:29:25;99898.19;;;16.05;51.45
76352;BME280;65179;47.786;19.138;2023-11-21T07:31:52;99893.84;;;16.04;51.40
76352;BME280;65179;47.786;19.138;2023-11-21T07:34:18;99897.41;;;16.05;51.40
76352;BME280;65179;47.786;19.138;2023-11-21T07:36:43;99886.13;;;16.01;51.36
76352;BME280;65179;47.786;19.138;2023-11-21T07:39:08;99890.53;;;16.02;51.34
76352;BME280;65179;47.786;19.138;2023-11-21T07:41:34;99886.13;;;16.01;51.32
76352;BME280;65179;47.786;19.138;2023-11-21T07:43:59;99888.03;;;16.01;51.27
76352;BME280;65179;47.786;19.138;2023-11-21T07:46:26;99898.19;;;16.00;51.27
76352;BME280;65179;47.786;19.138;2023-11-21T07:48:52;99885.06;;;16.02;51.33
76352;BME280;65179;47.786;19.138;2023-11-21T07:51:17;99883.72;;;16.05;51.25
76352;BME280;65179;47.786;19.138;2023-11-21T07:53:42;99885.06;;;16.07;51.20
76352;BME280;65179;47.786;19.138;2023-11-21T07:56:08;99891.69;;;16.11;51.11
76352;BME280;65179;47.786;19.138;2023-11-21T07:58:37;99889.75;;;16.12;51.01
76352;BME280;65179;47.786;19.138;2023-11-21T08:01:03;99891.12;;;16.14;50.98
76352;BME280;65179;47.786;19.138;2023-11-21T08:03:30;99891.66;;;16.16;50.93
76352;BME280;65179;47.786;19.138;2023-11-21T08:05:59;99891.66;;;16.16;50.90
76352;BME280;65179;47.786;19.138;2023-11-21T08:08:25;99886.19;;;16.16;50.96
76352;BME280;65179;47.786;19.138;2023-11-21T08:10:51;99887.31;;;16.15;50.94
76352;BME280;65179;47.786;19.138;2023-11-21T08:13:26;99882.91;;;16.14;51.03
76352;BME280;65179;47.786;19.138;2023-11-21T08:15:55;99881.28;;;16.13;50.98
76352;BME280;65179;47.786;19.138;2023-11-21T08:18:21;99875.78;;;16.13;50.98
76352;BME280;65179;47.786;19.138;2023-11-21T08:20:48;99874.97;;;16.13;51.02
76352;BME280;65179;47.786;19.138;2023-11-21T08:23:14;99874.13;;;16.12;51.04
76352;BME280;65179;47.786;19.138;2023-11-21T08:25:41;99879.06;;;16.10;51.10
76352;BME280;65179;47.786;19.138;2023-11-21T08:28:07;99886.19;;;16.11;51.11
76352;BME280;65179;47.786;19.138;2023-11-21T08:30:33;99883.69;;;16.10;51.16
76352;BME280;65179;47.786;19.138;2023-11-21T08:32:58;99885.63;;;16.09;51.19
76352;BME280;65179;47.786;19.138;2023-11-21T08:35:24;99885.06;;;16.07;51.24
76352;BME280;65179;47.786;19.138;2023-11-21T08:37:53;99890.28;;;16.09;51.25
76352;BME280;65179;47.786;19.138;2023-11-21T08:40:19;99893.28;;;16.07;51.31
76352;BME280;65179;47.786;19.138;2023-11-21T08:42:46;99888.91;;;16.06;51.33
76352;BME280;65179;47.786;19.138;2023-11-21T08:45:11;99903.44;;;16.07;51.37
76352;BME280;65179;47.786;19.138;2023-11-21T08:47:38;99901.78;;;16.06;51.39
76352;BME280;65179;47.786;19.138;2023-11-21T08:50:05;99897.41;;;16.05;51.44
76352;BME280;65179;47.786;19.138;2023-11-21T08:52:35;99889.97;;;16.05;51.49
76352;BME280;65179;47.786;19.138;2023-11-21T08:55:02;99888.34;;;16.04;51.51
76352;BME280;65179;47.786;19.138;2023-11-21T08:57:36;99888.34;;;16.04;51.55
76352;BME280;65179;47.786;19.138;2023-11-21T09:00:06;99893.84;;;16.04;51.57
76352;BME280;65179;47.786;19.138;2023-11-21T09:02:42;99894.91;;;16.03;51.63
76352;BME280;65179;47.786;19.138;2023-11-21T09:05:09;99889.44;;;16.03;51.64
76352;BME280;65179;47.786;19.138;2023-11-21T09:07:35;99899.56;;;16.03;51.68
76352;BME280;65179;47.786;19.138;2023-11-21T09:10:02;99896.00;;;16.02;51.71
76352;BME280;65179;47.786;19.138;2023-11-21T09:12:28;99890.53;;;16.02;51.75
76352;BME280;65179;47.786;19.138;2023-11-21T09:14:53;99890.53;;;16.02;51.79
76352;BME280;65179;47.786;19.138;2023-11-21T09:17:19;99882.56;;;16.01;51.84
76352;BME280;65179;47.786;19.138;2023-11-21T09:19:44;99880.94;;;16.00;51.87
76352;BME280;65179;47.786;19.138;2023-11-21T09:22:12;99893.53;;;16.01;51.91
76352;BME280;65179;47.786;19.138;2023-11-21T09:24:37;99887.25;;;16.00;51.94
76352;BME280;65179;47.786;19.138;2023-11-21T09:27:03;99889.97;;;16.00;51.99
76352;BME280;65179;47.786;19.138;2023-11-21T09:29:30;99882.56;;;16.01;52.01
76352;BME280;65179;47.786;19.138;2023-11-21T09:31:56;99876.28;;;16.00;52.07
76352;BME280;65179;47.786;19.138;2023-11-21T09:34:24;99866.97;;;16.01;52.09
76352;BME280;65179;47.786;19.138;2023-11-21T09:36:50;99866.97;;;16.01;52.14
76352;BME280;65179;47.786;19.138;2023-11-21T09:39:16;99871.59;;;16.01;52.18
76352;BME280;65179;47.786;19.138;2023-11-21T09:41:51;99868.06;;;16.00;52.21
76352;BME280;65179;47.786;19.138;2023-11-21T09:44:23;99869.69;;;16.01;52.35
76352;BME280;65179;47.786;19.138;2023-11-21T09:46:54;99863.94;;;16.03;52.39
76352;BME280;65179;47.786;19.138;2023-11-21T09:49:23;99854.94;;;16.02;52.40
76352;BME280;65179;47.786;19.138;2023-11-21T09:51:54;99851.91;;;16.04;52.43
76352;BME280;65179;47.786;19.138;2023-11-21T09:54:21;99842.88;;;16.03;52.49
76352;BME280;65179;47.786;19.138;2023-11-21T09:56:47;99839.28;;;16.03;52.51
76352;BME280;65179;47.786;19.138;2023-11-21T09:59:14;99830.84;;;16.04;52.54
76352;BME280;65179;47.786;19.138;2023-11-21T10:01:41;99835.47;;;16.04;52.58
76352;BME280;65179;47.786;19.138;2023-11-21T10:04:07;99834.66;;;16.03;52.65
76352;BME280;65179;47.786;19.138;2023-11-21T10:06:39;99841.78;;;16.04;52.70
76352;BME280;65179;47.786;19.138;2023-11-21T10:09:10;99828.09;;;16.04;52.74
76352;BME280;65179;47.786;19.138;2023-11-21T10:11:40;99830.84;;;16.04;52.79
76352;BME280;65179;47.786;19.138;2023-11-21T10:14:08;99834.66;;;16.03;52.82
76352;BME280;65179;47.786;19.138;2023-11-21T10:16:35;99831.91;;;16.03;52.87
76352;BME280;65179;47.786;19.138;2023-11-21T10:19:03;99827.53;;;16.02;52.93
76352;BME280;65179;47.786;19.138;2023-11-21T10:21:29;99830.00;;;16.04;53.00
76352;BME280;65179;47.786;19.138;2023-11-21T10:23:55;99824.81;;;16.02;53.03
76352;BME280;65179;47.786;19.138;2023-11-21T10:26:22;99827.53;;;16.02;53.06
76352;BME280;65179;47.786;19.138;2023-11-21T10:28:59;99819.31;;;16.02;53.16
76352;BME280;65179;47.786;19.138;2023-11-21T10:31:27;99824.81;;;16.02;53.27
76352;BME280;65179;47.786;19.138;2023-11-21T10:33:53;99824.81;;;16.02;53.24
76352;BME280;65179;47.786;19.138;2023-11-21T10:36:28;99824.53;;;16.04;53.24
76352;BME280;65179;47.786;19.138;2023-11-21T10:38:54;99826.44;;;16.03;53.36
76352;BME280;65179;47.786;19.138;2023-11-21T10:41:20;99820.72;;;16.05;53.31
76352;BME280;65179;47.786;19.138;2023-11-21T10:43:45;99826.97;;;16.05;53.36
76352;BME280;65179;47.786;19.138;2023-11-21T10:46:11;99823.44;;;16.05;53.42
76352;BME280;65179;47.786;19.138;2023-11-21T10:48:37;99817.13;;;16.04;53.49
76352;BME280;65179;47.786;19.138;2023-11-21T10:51:06;99820.72;;;16.05;53.55
76352;BME280;65179;47.786;19.138;2023-11-21T10:53:41;99813.28;;;16.05;53.63
76352;BME280;65179;47.786;19.138;2023-11-21T10:56:08;99814.41;;;16.04;53.69
76352;BME280;65179;47.786;19.138;2023-11-21T10:58:43;99812.50;;;16.05;53.69
76352;BME280;65179;47.786;19.138;2023-11-21T11:01:09;99809.75;;;16.05;53.77
76352;BME280;65179;47.786;19.138;2023-11-21T11:03:37;99806.19;;;16.04;53.81
76352;BME280;65179;47.786;19.138;2023-11-21T11:06:04;99811.66;;;16.04;53.83
76352;BME280;65179;47.786;19.138;2023-11-21T11:08:32;99818.22;;;16.03;53.89
76352;BME280;65179;47.786;19.138;2023-11-21T11:10:59;99818.75;;;16.05;53.92
76352;BME280;65179;47.786;19.138;2023-11-21T11:13:24;99812.50;;;16.05;53.92
76352;BME280;65179;47.786;19.138;2023-11-21T11:15:51;99807.81;;;16.05;53.96
76352;BME280;65179;47.786;19.138;2023-11-21T11:18:21;99805.06;;;16.05;53.93
76352;BME280;65179;47.786;19.138;2023-11-21T11:20:49;99802.34;;;16.05;53.96
76352;BME280;65179;47.786;19.138;2023-11-21T11:26:46;99793.03;;;16.06;54.11
76352;BME280;65179;47.786;19.138;2023-11-21T11:34:41;99793.88;;;16.07;54.18
76352;BME280;65179;47.786;19.138;2023-11-21T11:37:09;99800.97;;;16.08;54.14
76352;BME280;65179;47.786;19.138;2023-11-21T11:39:40;99798.22;;;16.08;54.19
76352;BME280;65179;47.786;19.138;2023-11-21T11:42:10;99796.31;;;16.08;54.21
76352;BME280;65179;47.786;19.138;2023-11-21T11:47:27;99795.50;;;16.08;54.35
76352;BME280;65179;47.786;19.138;2023-11-21T11:50:01;99793.59;;;16.08;54.41
76352;BME280;65179;47.786;19.138;2023-11-21T11:55:12;99779.87;;;16.08;54.41
76352;BME280;65179;47.786;19.138;2023-11-21T11:57:42;99786.44;;;16.07;54.41
76352;BME280;65179;47.786;19.138;2023-11-21T12:00:11;99790.00;;;16.08;54.44
76352;BME280;65179;47.786;19.138;2023-11-21T12:02:42;99786.44;;;16.07;54.45
76352;BME280;65179;47.786;19.138;2023-11-21T12:05:13;99788.94;;;16.09;54.45
76352;BME280;65179;47.786;19.138;2023-11-21T12:07:53;99792.47;;;16.09;54.51
76352;BME280;65179;47.786;19.138;2023-11-21T12:10:23;99776.03;;;16.09;54.62
76352;BME280;65179;47.786;19.138;2023-11-21T12:13:00;99773.59;;;16.08;54.55
76352;BME280;65179;47.786;19.138;2023-11-21T12:15:26;99771.66;;;16.08;54.68
76352;BME280;65179;47.786;19.138;2023-11-21T12:17:55;99779.87;;;16.08;54.59
76352;BME280;65179;47.786;19.138;2023-11-21T12:20:22;99774.41;;;16.08;54.61
76352;BME280;65179;47.786;19.138;2023-11-21T12:22:58;99773.59;;;16.08;54.67
76352;BME280;65179;47.786;19.138;2023-11-21T12:25:29;99768.94;;;16.08;54.68
76352;BME280;65179;47.786;19.138;2023-11-21T12:27:57;99778.22;;;16.07;54.70
76352;BME280;65179;47.786;19.138;2023-11-21T12:30:28;99773.59;;;16.08;54.73
76352;BME280;65179;47.786;19.138;2023-11-21T12:32:57;99776.31;;;16.08;54.75
76352;BME280;65179;47.786;19.138;2023-11-21T12:35:26;99779.87;;;16.08;54.74
76352;BME280;65179;47.786;19.138;2023-11-21T12:37:53;99788.94;;;16.09;54.79
76352;BME280;65179;47.786;19.138;2023-11-21T12:40:19;99776.31;;;16.08;54.76
76352;BME280;65179;47.786;19.138;2023-11-21T12:42:47;99778.78;;;16.09;54.79
76352;BME280;65179;47.786;19.138;2023-11-21T12:47:44;99757.97;;;16.08;54.80
76352;BME280;65179;47.786;19.138;2023-11-21T12:50:12;99763.47;;;16.08;54.80
76352;BME280;65179;47.786;19.138;2023-11-21T12:52:44;99761.53;;;16.09;54.79
76352;BME280;65179;47.786;19.138;2023-11-21T12:55:15;99767.28;;;16.07;54.84
76352;BME280;65179;47.786;19.138;2023-11-21T12:57:42;99770.84;;;16.08;54.81
76352;BME280;65179;47.786;19.138;2023-11-21T13:00:08;99777.16;;;16.08;54.83
76352;BME280;65179;47.786;19.138;2023-11-21T13:02:38;99772.75;;;16.07;54.82
76352;BME280;65179;47.786;19.138;2023-11-21T13:05:07;99780.72;;;16.09;54.84